Time;durP1;ratioP1;P1;durP2;ratioP2;P2;SDS_P1;SDS_P2;PMS_P1;PMS_P2;Temp;Humidity;BMP_temperature;BMP_pressure;BME280_temperature;BME280_humidity;BME280_pressure;Samples;Min_cycle;Max_cycle;Signal;HPM_P1;HPM_P2
2021/01/18 00:00:55;;;;;;;29.27;12.87;;;;;;;;;;10218582;28;20030;-65
2021/01/18 00:05:52;;;;;;;20.92;8.63;;;;;;;;;;10210937;28;20077;-66
2021/01/18 00:10:50;;;;;;;16.23;8.07;;;;;;;;;;10202729;28;20326;-67
2021/01/18 00:15:47;;;;;;;12.50;5.53;;;;;;;;;;10199605;28;20046;-67
2021/01/18 00:20:45;;;;;;;20.20;7.47;;;;;;;;;;10220305;28;20042;-67
2021/01/18 00:25:42;;;;;;;21.33;9.50;;;;;;;;;;10189205;28;20086;-65
2021/01/18 00:30:39;;;;;;;19.10;7.77;;;;;;;;;;10213042;28;20048;-67
2021/01/18 00:35:37;;;;;;;22.17;8.38;;;;;;;;;;10202267;28;20039;-66
2021/01/18 00:40:34;;;;;;;13.13;6.87;;;;;;;;;;10205654;28;20034;-65
2021/01/18 00:45:32;;;;;;;13.00;6.60;;;;;;;;;;10192369;28;20038;-66
2021/01/18 00:50:30;;;;;;;18.37;7.60;;;;;;;;;;10180380;28;20031;-65
2021/01/18 00:55:27;;;;;;;;;;;;;;;;;;10201118;28;20026;-65
2021/01/18 01:00:44;;;;;;;16.77;7.30;;;;;;;;;;10206770;28;19960;-65
2021/01/18 01:05:45;;;;;;;17.77;7.82;;;;;;;;;;10196947;28;20033;-65
2021/01/18 01:10:42;;;;;;;8.73;4.90;;;;;;;;;;10203236;28;20042;-65
2021/01/18 01:15:39;;;;;;;10.37;3.07;;;;;;;;;;10207186;28;20038;-68
2021/01/18 01:20:37;;;;;;;11.80;4.07;;;;;;;;;;10197754;28;20030;-65
2021/01/18 01:25:35;;;;;;;4.03;2.17;;;;;;;;;;10194909;28;20034;-64
2021/01/18 01:30:33;;;;;;;12.02;4.75;;;;;;;;;;10199216;28;20027;-63
2021/01/18 01:35:31;;;;;;;4.93;2.92;;;;;;;;;;10207976;28;20038;-63
2021/01/18 01:40:29;;;;;;;5.45;2.75;;;;;;;;;;10175963;28;20045;-64
2021/01/18 01:45:26;;;;;;;6.37;2.73;;;;;;;;;;10218270;28;20482;-64
2021/01/18 01:50:27;;;;;;;3.80;2.03;;;;;;;;;;10213180;28;20031;-65
2021/01/18 01:55:29;;;;;;;10.32;4.97;;;;;;;;;;10198500;28;20030;-65
2021/01/18 02:00:36;;;;;;;7.00;3.00;;;;;;;;;;10211061;28;20093;-64
2021/01/18 02:05:34;;;;;;;11.32;3.35;;;;;;;;;;10204549;28;20023;-64
2021/01/18 02:10:32;;;;;;;3.88;2.13;;;;;;;;;;10205801;28;20034;-66
2021/01/18 02:15:37;;;;;;;10.23;3.03;;;;;;;;;;10200303;28;20035;-66
2021/01/18 02:20:37;;;;;;;6.90;3.42;;;;;;;;;;10206039;28;20512;-66
2021/01/18 02:25:44;;;;;;;11.55;2.85;;;;;;;;;;10210999;28;20031;-66
2021/01/18 02:30:44;;;;;;;1.52;1.05;;;;;;;;;;10199792;28;20049;-65
2021/01/18 02:36:00;;;;;;;6.13;2.35;;;;;;;;;;10198291;28;20404;-66
2021/01/18 02:41:14;;;;;;;2.13;1.75;;;;;;;;;;10198662;28;20097;-66
2021/01/18 02:46:14;;;;;;;6.10;1.58;;;;;;;;;;10198263;28;20114;-66
2021/01/18 02:51:15;;;;;;;8.43;2.97;;;;;;;;;;10205080;28;20153;-67
2021/01/18 02:56:12;;;;;;;8.45;2.40;;;;;;;;;;10202717;28;20602;-66
2021/01/18 03:01:15;;;;;;;3.50;1.63;;;;;;;;;;10208668;28;20182;-66
2021/01/18 03:06:18;;;;;;;1.80;1.17;;;;;;;;;;10201402;28;20535;-66
2021/01/18 03:11:17;;;;;;;0.88;0.88;;;;;;;;;;10199027;28;20038;-67
2021/01/18 03:16:19;;;;;;;0.75;0.55;;;;;;;;;;10214826;28;20081;-66
2021/01/18 03:21:17;;;;;;;2.17;1.08;;;;;;;;;;10193712;28;20046;-65
2021/01/18 03:26:15;;;;;;;3.65;1.40;;;;;;;;;;10206223;28;20404;-64
2021/01/18 03:31:12;;;;;;;4.85;1.15;;;;;;;;;;10211076;28;20030;-65
2021/01/18 03:36:10;;;;;;;3.13;1.23;;;;;;;;;;10195386;28;20110;-66
2021/01/18 03:41:07;;;;;;;1.03;0.60;;;;;;;;;;10198405;28;20041;-67
2021/01/18 03:46:05;;;;;;;10.45;1.02;;;;;;;;;;10196417;28;20471;-65
2021/01/18 03:51:02;;;;;;;2.07;0.50;;;;;;;;;;10199802;28;20362;-66
2021/01/18 03:56:00;;;;;;;6.13;1.33;;;;;;;;;;10220408;28;20456;-65
2021/01/18 04:00:57;;;;;;;1.47;0.73;;;;;;;;;;10203281;28;20125;-67
2021/01/18 04:05:55;;;;;;;5.33;1.63;;;;;;;;;;10215842;28;20034;-67
2021/01/18 04:10:52;;;;;;;2.57;1.47;;;;;;;;;;10220801;28;20030;-66
2021/01/18 04:15:49;;;;;;;6.50;1.70;;;;;;;;;;10203455;28;21356;-67
2021/01/18 04:20:47;;;;;;;7.70;2.00;;;;;;;;;;10208706;28;20138;-67
2021/01/18 04:25:44;;;;;;;4.50;2.37;;;;;;;;;;10218772;28;20053;-67
2021/01/18 04:30:41;;;;;;;2.10;1.90;;;;;;;;;;10187562;28;20463;-66
2021/01/18 04:35:39;;;;;;;10.53;1.67;;;;;;;;;;10208890;28;20055;-66
2021/01/18 04:40:36;;;;;;;4.10;2.07;;;;;;;;;;10198215;28;20493;-66
2021/01/18 04:45:34;;;;;;;4.90;1.90;;;;;;;;;;10206006;28;20034;-67
2021/01/18 04:50:31;;;;;;;2.43;1.43;;;;;;;;;;10200715;28;20463;-67
2021/01/18 04:55:28;;;;;;;2.43;1.83;;;;;;;;;;10201297;28;20528;-67
2021/01/18 05:00:33;;;;;;;3.30;1.97;;;;;;;;;;10209582;28;20117;-67
2021/01/18 05:05:36;;;;;;;3.45;2.38;;;;;;;;;;10218479;28;20034;-67
2021/01/18 05:10:35;;;;;;;2.67;2.17;;;;;;;;;;10191222;28;20570;-66
2021/01/18 05:15:33;;;;;;;2.00;1.80;;;;;;;;;;10200596;28;20041;-66
2021/01/18 05:20:30;;;;;;;4.03;2.33;;;;;;;;;;10208662;28;20539;-66
2021/01/18 05:25:27;;;;;;;5.07;2.70;;;;;;;;;;10213658;28;20122;-66
2021/01/18 05:30:25;;;;;;;7.57;3.23;;;;;;;;;;10193818;28;20061;-66
2021/01/18 05:35:23;;;;;;;5.47;2.92;;;;;;;;;;10190701;28;20038;-65
2021/01/18 05:40:21;;;;;;;5.83;2.87;;;;;;;;;;10214247;28;20404;-64
2021/01/18 05:45:35;;;;;;;4.47;2.67;;;;;;;;;;10189627;28;20687;-65
2021/01/18 05:50:33;;;;;;;6.38;2.97;;;;;;;;;;10211386;28;20030;-63
2021/01/18 05:55:31;;;;;;;5.78;3.75;;;;;;;;;;10197786;28;20030;-64
2021/01/18 06:00:29;;;;;;;3.67;2.67;;;;;;;;;;10213307;28;20037;-63
2021/01/18 06:05:29;;;;;;;6.38;3.38;;;;;;;;;;10205033;28;20404;-66
2021/01/18 06:10:33;;;;;;;6.35;3.25;;;;;;;;;;10208708;28;20030;-65
2021/01/18 06:15:31;;;;;;;5.25;2.08;;;;;;;;;;10213550;28;20117;-65
2021/01/18 06:20:28;;;;;;;8.87;3.57;;;;;;;;;;10203010;28;20121;-65
2021/01/18 06:25:32;;;;;;;9.23;2.77;;;;;;;;;;10201728;28;20097;-65
2021/01/18 06:30:32;;;;;;;9.55;3.45;;;;;;;;;;10183325;28;20030;-65
2021/01/18 06:35:31;;;;;;;12.55;2.75;;;;;;;;;;10192924;28;20037;-65
2021/01/18 06:40:28;;;;;;;;;;;;;;;;;;10187463;28;20142;-66
2021/01/18 06:45:30;;;;;;;5.40;3.03;;;;;;;;;;10191321;28;19918;-65
2021/01/18 06:50:29;;;;;;;8.48;3.08;;;;;;;;;;10187348;28;20038;-67
2021/01/18 06:55:27;;;;;;;15.02;3.60;;;;;;;;;;10178591;28;20196;-65
2021/01/18 07:00:24;;;;;;;11.75;3.25;;;;;;;;;;10231051;23;20034;-62
2021/01/18 07:05:35;;;;;;;9.90;3.05;;;;;;;;;;10214757;28;20062;-63
2021/01/18 07:10:35;;;;;;;12.23;3.25;;;;;;;;;;10212562;28;20054;-60
2021/01/18 07:15:36;;;;;;;17.38;3.55;;;;;;;;;;10207730;28;20033;-60
2021/01/18 07:20:37;;;;;;;8.13;2.67;;;;;;;;;;10190486;28;20406;-59
2021/01/18 07:25:35;;;;;;;18.25;3.00;;;;;;;;;;10206540;28;20062;-60
2021/01/18 07:30:32;;;;;;;10.90;3.07;;;;;;;;;;10200893;28;20121;-59
2021/01/18 07:35:30;;;;;;;14.27;3.03;;;;;;;;;;10205154;28;20034;-60
2021/01/18 07:40:28;;;;;;;4.22;2.38;;;;;;;;;;10200653;28;20034;-59
2021/01/18 07:45:25;;;;;;;6.53;3.20;;;;;;;;;;10188387;28;20033;-60
2021/01/18 07:50:33;;;;;;;20.33;3.13;;;;;;;;;;10215721;28;20117;-60
2021/01/18 07:55:31;;;;;;;8.83;3.43;;;;;;;;;;10201740;28;20089;-60
2021/01/18 08:00:29;;;;;;;11.18;2.55;;;;;;;;;;10209029;28;20088;-60
2021/01/18 08:05:29;;;;;;;12.05;2.55;;;;;;;;;;10201444;28;20447;-60
2021/01/18 08:10:45;;;;;;;5.88;2.78;;;;;;;;;;10208639;28;20050;-60
2021/01/18 08:15:43;;;;;;;7.97;3.05;;;;;;;;;;10202139;28;20121;-60
2021/01/18 08:20:40;;;;;;;5.17;2.70;;;;;;;;;;10196030;28;20050;-60
2021/01/18 08:25:38;;;;;;;13.47;3.90;;;;;;;;;;10194786;28;20041;-60
2021/01/18 08:30:39;;;;;;;9.37;3.23;;;;;;;;;;10198726;28;20062;-60
2021/01/18 08:35:44;;;;;;;4.18;2.28;;;;;;;;;;10198893;28;20042;-59
2021/01/18 08:40:45;;;;;;;9.93;3.53;;;;;;;;;;10202076;28;20034;-60
2021/01/18 08:45:47;;;;;;;16.10;3.15;;;;;;;;;;10199875;28;20039;-62
2021/01/18 08:50:48;;;;;;;12.05;3.63;;;;;;;;;;10209857;28;20085;-62
2021/01/18 08:55:45;;;;;;;8.02;3.28;;;;;;;;;;10205115;28;20097;-63
2021/01/18 09:00:42;;;;;;;9.60;3.80;;;;;;;;;;10192550;28;20031;-62
2021/01/18 09:05:40;;;;;;;7.27;2.90;;;;;;;;;;10220029;28;20050;-61
2021/01/18 09:10:37;;;;;;;9.60;2.00;;;;;;;;;;10205540;28;20037;-62
2021/01/18 09:15:35;;;;;;;5.77;3.17;;;;;;;;;;10213170;28;20272;-62
2021/01/18 09:20:35;;;;;;;12.03;3.20;;;;;;;;;;10193902;28;20552;-63
2021/01/18 09:25:34;;;;;;;9.48;3.35;;;;;;;;;;10205149;28;20673;-63
2021/01/18 09:30:31;;;;;;;;;;;;;;;;;;10181495;28;20039;-62
2021/01/18 09:35:29;;;;;;;6.70;3.43;;;;;;;;;;10208658;28;20141;-63
2021/01/18 09:40:27;;;;;;;;;;;;;;;;;;10211073;28;20830;-61
2021/01/18 09:45:25;;;;;;;10.82;4.00;;;;;;;;;;10206262;28;21291;-61
2021/01/18 09:50:23;;;;;;;5.22;3.17;;;;;;;;;;10206336;28;20037;-60
2021/01/18 09:55:23;;;;;;;15.50;4.80;;;;;;;;;;10189296;28;20038;-62
2021/01/18 10:00:22;;;;;;;7.25;3.95;;;;;;;;;;10191789;28;20097;-61
2021/01/18 10:05:23;;;;;;;14.88;3.58;;;;;;;;;;10226232;28;20141;-60
2021/01/18 10:10:21;;;;;;;10.15;5.38;;;;;;;;;;10198140;28;20050;-60
2021/01/18 10:15:26;;;;;;;11.00;4.83;;;;;;;;;;10188186;28;20070;-60
2021/01/18 10:20:28;;;;;;;8.98;4.32;;;;;;;;;;10176024;28;20039;-60
2021/01/18 10:25:26;;;;;;;11.73;5.35;;;;;;;;;;10192083;28;20433;-63
2021/01/18 10:30:23;;;;;;;;;;;;;;;;;;10205610;28;20121;-62
2021/01/18 10:35:29;;;;;;;13.63;4.40;;;;;;;;;;10199749;28;19934;-61
2021/01/18 10:40:27;;;;;;;13.38;5.47;;;;;;;;;;10194413;28;20061;-61
2021/01/18 10:45:26;;;;;;;14.00;4.53;;;;;;;;;;10196658;28;20038;-62
2021/01/18 10:50:24;;;;;;;5.90;3.42;;;;;;;;;;10187250;28;20065;-62
2021/01/18 10:55:23;;;;;;;;;;;;;;;;;;10195460;28;20485;-63
2021/01/18 11:00:22;;;;;;;13.65;5.90;;;;;;;;;;10200345;28;19918;-60
2021/01/18 11:05:26;;;;;;;12.55;5.60;;;;;;;;;;10203167;28;20069;-63
2021/01/18 11:10:25;;;;;;;16.10;6.10;;;;;;;;;;10193627;28;20035;-62
2021/01/18 11:15:28;;;;;;;12.05;5.85;;;;;;;;;;10199505;28;20038;-64
2021/01/18 11:20:26;;;;;;;11.68;5.57;;;;;;;;;;10198425;28;20057;-61
2021/01/18 11:25:24;;;;;;;15.27;5.10;;;;;;;;;;10199669;28;20124;-61
2021/01/18 11:30:21;;;;;;;18.00;6.15;;;;;;;;;;10194781;28;20402;-61
2021/01/18 11:35:19;;;;;;;17.33;6.20;;;;;;;;;;10205674;28;20042;-62
2021/01/18 11:40:16;;;;;;;14.90;5.90;;;;;;;;;;10207942;28;20342;-60
2021/01/18 11:45:14;;;;;;;12.07;5.57;;;;;;;;;;10190548;28;20042;-61
2021/01/18 11:50:11;;;;;;;29.40;5.60;;;;;;;;;;10213839;28;20056;-62
2021/01/18 11:55:09;;;;;;;18.33;5.97;;;;;;;;;;10186143;28;20221;-61
2021/01/18 12:00:07;;;;;;;15.32;6.97;;;;;;;;;;10200422;28;20042;-61
2021/01/18 12:05:05;;;;;;;11.87;6.60;;;;;;;;;;10195196;28;20042;-63
2021/01/18 12:10:03;;;;;;;12.38;6.05;;;;;;;;;;10184762;28;20340;-62
2021/01/18 12:15:01;;;;;;;20.98;7.25;;;;;;;;;;10213842;28;20125;-62
2021/01/18 12:19:59;;;;;;;16.80;6.53;;;;;;;;;;10194814;28;20117;-65
2021/01/18 12:24:56;;;;;;;15.33;6.37;;;;;;;;;;10204745;28;20394;-65
2021/01/18 12:29:53;;;;;;;24.43;7.30;;;;;;;;;;10189604;28;20429;-66
2021/01/18 12:34:51;;;;;;;17.13;7.13;;;;;;;;;;10201514;28;20040;-61
2021/01/18 12:39:48;;;;;;;8.53;4.83;;;;;;;;;;10195893;28;20034;-62
2021/01/18 12:44:46;;;;;;;13.80;4.23;;;;;;;;;;10199789;28;20034;-61
2021/01/18 12:49:43;;;;;;;14.40;6.33;;;;;;;;;;10196941;28;20038;-61
2021/01/18 12:54:41;;;;;;;16.33;4.97;;;;;;;;;;10196071;28;20038;-62
2021/01/18 12:59:38;;;;;;;12.20;5.23;;;;;;;;;;10203710;28;20439;-59
2021/01/18 13:04:35;;;;;;;11.37;4.87;;;;;;;;;;10194327;28;20049;-61
2021/01/18 13:09:33;;;;;;;9.23;4.70;;;;;;;;;;10193363;28;20042;-59
2021/01/18 13:14:30;;;;;;;13.93;4.10;;;;;;;;;;10171805;28;20489;-61
2021/01/18 13:19:28;;;;;;;25.20;6.67;;;;;;;;;;10188886;28;20033;-63
2021/01/18 13:24:25;;;;;;;11.77;4.40;;;;;;;;;;10172438;28;20070;-61
2021/01/18 13:29:23;;;;;;;5.57;3.80;;;;;;;;;;10190378;28;20050;-62
2021/01/18 13:34:21;;;;;;;8.97;4.93;;;;;;;;;;10169478;28;20108;-64
2021/01/18 13:39:19;;;;;;;8.55;3.72;;;;;;;;;;10169564;28;20038;-64
2021/01/18 13:44:16;;;;;;;11.10;4.55;;;;;;;;;;10181056;28;20481;-61
2021/01/18 13:49:14;;;;;;;13.00;3.00;;;;;;;;;;10192128;28;20449;-63
2021/01/18 13:54:11;;;;;;;10.83;3.20;;;;;;;;;;10183204;28;20691;-61
2021/01/18 13:59:08;;;;;;;5.27;2.10;;;;;;;;;;10162548;28;20532;-64
2021/01/18 14:04:06;;;;;;;3.97;2.90;;;;;;;;;;10193559;28;20138;-62
2021/01/18 14:09:05;;;;;;;4.80;2.40;;;;;;;;;;10192579;28;20161;-62
2021/01/18 14:14:03;;;;;;;4.43;2.55;;;;;;;;;;10208941;28;20043;-58
2021/01/18 14:19:00;;;;;;;7.93;4.90;;;;;;;;;;10193269;28;20038;-60
2021/01/18 14:24:06;;;;;;;7.77;4.00;;;;;;;;;;10203648;28;20038;-61
2021/01/18 14:29:03;;;;;;;6.75;3.22;;;;;;;;;;10187582;28;20105;-64
2021/01/18 14:34:01;;;;;;;7.00;3.03;;;;;;;;;;10206614;28;20153;-59
2021/01/18 14:38:59;;;;;;;3.70;2.42;;;;;;;;;;10199745;28;20038;-61
2021/01/18 14:43:57;;;;;;;9.60;2.67;;;;;;;;;;10194920;28;20039;-62
2021/01/18 14:48:55;;;;;;;7.63;2.70;;;;;;;;;;10196662;28;20057;-63
2021/01/18 14:53:53;;;;;;;5.75;2.50;;;;;;;;;;10188220;28;20034;-59
2021/01/18 14:58:50;;;;;;;5.07;2.23;;;;;;;;;;10193003;28;20050;-62
2021/01/18 15:03:48;;;;;;;6.37;1.90;;;;;;;;;;10191459;28;20508;-64
2021/01/18 15:08:46;;;;;;;8.27;2.75;;;;;;;;;;10156195;28;20042;-61
2021/01/18 15:13:44;;;;;;;12.33;2.53;;;;;;;;;;10208387;28;20038;-59
2021/01/18 15:18:41;;;;;;;6.83;2.30;;;;;;;;;;10190133;28;20100;-61
2021/01/18 15:23:38;;;;;;;5.10;2.20;;;;;;;;;;10128801;28;20524;-64
2021/01/18 15:28:36;;;;;;;7.73;2.17;;;;;;;;;;10130668;28;20038;-63
2021/01/18 15:33:33;;;;;;;17.27;3.10;;;;;;;;;;10192018;28;20152;-62
2021/01/18 15:38:31;;;;;;;5.90;2.17;;;;;;;;;;10202713;28;21872;-60
2021/01/18 15:43:28;;;;;;;4.80;2.23;;;;;;;;;;10193405;28;20409;-64
2021/01/18 15:48:27;;;;;;;7.17;2.20;;;;;;;;;;10201710;28;20656;-62
2021/01/18 15:53:25;;;;;;;10.88;2.63;;;;;;;;;;10181515;28;20036;-62
2021/01/18 15:58:23;;;;;;;8.02;2.85;;;;;;;;;;10210552;28;20442;-62
2021/01/18 16:03:20;;;;;;;5.37;1.70;;;;;;;;;;10206241;28;20018;-61
2021/01/18 16:08:18;;;;;;;15.43;2.77;;;;;;;;;;10199305;28;20396;-64
2021/01/18 16:13:15;;;;;;;4.33;2.80;;;;;;;;;;10208983;28;20037;-64
2021/01/18 16:18:12;;;;;;;9.33;2.63;;;;;;;;;;10201953;28;20113;-64
2021/01/18 16:23:10;;;;;;;3.40;1.50;;;;;;;;;;10191891;28;20042;-61
2021/01/18 16:28:08;;;;;;;4.53;1.60;;;;;;;;;;10204692;28;20301;-61
2021/01/18 16:33:05;;;;;;;5.70;1.27;;;;;;;;;;10206621;28;21236;-63
2021/01/18 16:38:04;;;;;;;3.83;1.53;;;;;;;;;;10217184;28;20049;-64
2021/01/18 16:43:03;;;;;;;1.90;1.08;;;;;;;;;;10188521;28;20046;-62
2021/01/18 16:48:01;;;;;;;;;;;;;;;;;;10196836;28;20116;-60
2021/01/18 16:52:58;;;;;;;1.55;0.85;;;;;;;;;;10194342;28;19976;-64
2021/01/18 16:57:56;;;;;;;7.75;2.25;;;;;;;;;;10194103;28;20030;-62
2021/01/18 17:02:53;;;;;;;3.07;1.50;;;;;;;;;;10202667;28;20038;-61
2021/01/18 17:07:51;;;;;;;6.20;2.30;;;;;;;;;;10202264;28;20074;-62
2021/01/18 17:12:48;;;;;;;7.67;2.33;;;;;;;;;;10201373;28;20125;-61
2021/01/18 17:17:45;;;;;;;6.63;2.33;;;;;;;;;;10196702;28;20080;-61
2021/01/18 17:22:43;;;;;;;6.30;2.50;;;;;;;;;;10185303;28;20038;-63
2021/01/18 17:27:40;;;;;;;6.83;2.60;;;;;;;;;;10188747;28;20043;-62
2021/01/18 17:32:38;;;;;;;7.97;1.87;;;;;;;;;;10195208;28;20031;-62
2021/01/18 17:37:39;;;;;;;9.10;2.30;;;;;;;;;;10197838;28;20038;-62
2021/01/18 17:42:36;;;;;;;8.93;2.50;;;;;;;;;;10205431;28;20405;-62
2021/01/18 17:47:34;;;;;;;3.97;1.93;;;;;;;;;;10210382;28;20042;-63
2021/01/18 17:52:31;;;;;;;3.47;2.00;;;;;;;;;;10218852;28;20037;-63
2021/01/18 17:57:28;;;;;;;4.60;1.50;;;;;;;;;;10206793;28;20034;-62
2021/01/18 18:02:26;;;;;;;3.67;1.20;;;;;;;;;;10188190;28;20495;-62
2021/01/18 18:07:25;;;;;;;7.53;1.73;;;;;;;;;;10202487;28;20050;-62
2021/01/18 18:12:24;;;;;;;9.88;1.90;;;;;;;;;;10189734;28;20049;-63
2021/01/18 18:17:22;;;;;;;9.45;3.45;;;;;;;;;;10198807;28;20042;-62
2021/01/18 18:22:20;;;;;;;16.17;8.00;;;;;;;;;;10194497;28;20038;-62
2021/01/18 18:27:17;;;;;;;15.77;5.27;;;;;;;;;;10191938;28;20494;-62
2021/01/18 18:32:15;;;;;;;16.30;4.17;;;;;;;;;;10203011;28;20033;-62
2021/01/18 18:37:12;;;;;;;9.37;4.00;;;;;;;;;;10212634;28;20039;-64
2021/01/18 18:42:10;;;;;;;10.83;4.07;;;;;;;;;;10229730;28;20045;-63
2021/01/18 18:47:07;;;;;;;6.00;3.33;;;;;;;;;;10235802;28;20043;-63
2021/01/18 18:52:05;;;;;;;11.17;3.33;;;;;;;;;;10224187;28;20248;-64
2021/01/18 18:57:02;;;;;;;11.37;3.23;;;;;;;;;;10222573;28;20284;-61
2021/01/18 19:02:01;;;;;;;13.70;3.67;;;;;;;;;;10149452;22;20046;-66
2021/01/18 19:06:58;;;;;;;;;;;;;;;;;;10152545;28;20043;-65
2021/01/18 19:12:03;;;;;;;10.10;2.63;;;;;;;;;;10141747;28;19914;-66
2021/01/18 19:17:00;;;;;;;11.40;3.35;;;;;;;;;;10151751;28;20049;-66
2021/01/18 19:21:57;;;;;;;8.73;2.33;;;;;;;;;;10146394;28;20042;-65
2021/01/18 19:26:55;;;;;;;5.50;2.17;;;;;;;;;;10172724;28;20066;-65
2021/01/18 19:31:53;;;;;;;11.03;2.90;;;;;;;;;;10173754;28;20039;-65
2021/01/18 19:36:51;;;;;;;8.52;2.10;;;;;;;;;;10145212;28;20046;-64
2021/01/18 19:41:48;;;;;;;5.38;3.15;;;;;;;;;;10158220;28;20035;-65
2021/01/18 19:46:47;;;;;;;9.73;3.03;;;;;;;;;;10173681;28;20039;-66
2021/01/18 19:51:48;;;;;;;7.10;2.22;;;;;;;;;;10153807;28;20105;-65
2021/01/18 19:56:48;;;;;;;8.23;2.60;;;;;;;;;;10164205;28;20132;-66
2021/01/18 20:01:46;;;;;;;7.93;3.08;;;;;;;;;;10173501;28;20035;-66
2021/01/18 20:06:44;;;;;;;7.65;2.35;;;;;;;;;;10170027;28;20041;-66
2021/01/18 20:11:41;;;;;;;5.30;2.53;;;;;;;;;;10167834;28;20422;-65
2021/01/18 20:16:38;;;;;;;11.43;4.87;;;;;;;;;;10144977;28;20089;-66
2021/01/18 20:21:36;;;;;;;7.37;4.10;;;;;;;;;;10157711;28;20039;-66
2021/01/18 20:26:34;;;;;;;9.37;4.27;;;;;;;;;;10159650;28;20067;-65
2021/01/18 20:31:32;;;;;;;9.77;4.00;;;;;;;;;;10144767;28;20057;-65
2021/01/18 20:36:30;;;;;;;13.23;4.43;;;;;;;;;;10154673;28;20421;-65
2021/01/18 20:41:29;;;;;;;11.45;4.15;;;;;;;;;;10158396;28;20101;-65
2021/01/18 20:46:36;;;;;;;9.27;2.95;;;;;;;;;;10153948;28;20460;-64
2021/01/18 20:51:33;;;;;;;9.63;3.55;;;;;;;;;;10171834;28;20483;-66
2021/01/18 20:56:31;;;;;;;7.40;2.73;;;;;;;;;;10159689;28;20064;-64
2021/01/18 21:01:28;;;;;;;5.93;3.37;;;;;;;;;;10166451;28;20042;-65
2021/01/18 21:06:26;;;;;;;7.50;2.13;;;;;;;;;;10163295;28;20043;-65
2021/01/18 21:11:23;;;;;;;4.73;2.60;;;;;;;;;;10164031;28;20713;-63
2021/01/18 21:16:22;;;;;;;15.63;6.23;;;;;;;;;;10171627;28;20100;-64
2021/01/18 21:21:23;;;;;;;25.15;8.40;;;;;;;;;;10152550;28;20054;-66
2021/01/18 21:26:20;;;;;;;30.65;10.48;;;;;;;;;;10139031;28;20228;-66
2021/01/18 21:31:18;;;;;;;26.43;7.20;;;;;;;;;;10164600;28;20038;-67
2021/01/18 21:36:15;;;;;;;23.00;6.83;;;;;;;;;;10158585;28;20034;-67
2021/01/18 21:41:18;;;;;;;20.63;7.37;;;;;;;;;;10162596;28;20041;-66
2021/01/18 21:46:16;;;;;;;22.55;5.68;;;;;;;;;;10134564;28;20676;-65
2021/01/18 21:51:14;;;;;;;23.42;7.85;;;;;;;;;;10140523;28;20042;-66
2021/01/18 21:56:11;;;;;;;10.27;5.17;;;;;;;;;;10146032;28;20039;-66
2021/01/18 22:01:08;;;;;;;15.93;5.40;;;;;;;;;;10142299;28;20050;-67
2021/01/18 22:06:06;;;;;;;6.00;4.03;;;;;;;;;;10130388;28;20034;-66
2021/01/18 22:11:03;;;;;;;10.47;3.93;;;;;;;;;;10165635;28;20035;-66
2021/01/18 22:16:01;;;;;;;18.13;5.63;;;;;;;;;;10149734;28;20046;-67
2021/01/18 22:20:58;;;;;;;11.30;4.07;;;;;;;;;;10154927;28;20560;-66
2021/01/18 22:25:56;;;;;;;12.70;4.30;;;;;;;;;;10145690;28;20042;-67
2021/01/18 22:30:53;;;;;;;9.83;3.70;;;;;;;;;;10131588;28;20554;-67
2021/01/18 22:35:51;;;;;;;8.93;3.23;;;;;;;;;;10151462;28;20070;-67
2021/01/18 22:40:48;;;;;;;4.53;3.10;;;;;;;;;;10150616;28;20061;-67
2021/01/18 22:45:45;;;;;;;2.60;1.90;;;;;;;;;;10137211;28;20042;-67
2021/01/18 22:50:43;;;;;;;4.67;2.97;;;;;;;;;;10139076;28;20019;-67
2021/01/18 22:55:40;;;;;;;9.17;2.63;;;;;;;;;;10129013;28;20057;-67
2021/01/18 23:00:38;;;;;;;4.03;2.37;;;;;;;;;;10146382;28;20533;-67
2021/01/18 23:05:35;;;;;;;8.37;2.67;;;;;;;;;;10133637;28;20098;-67
2021/01/18 23:10:32;;;;;;;4.43;2.80;;;;;;;;;;10131562;28;20031;-67
2021/01/18 23:15:30;;;;;;;2.60;1.80;;;;;;;;;;10146304;28;20034;-67
2021/01/18 23:20:28;;;;;;;12.80;2.65;;;;;;;;;;10123377;28;20102;-67
2021/01/18 23:25:26;;;;;;;4.20;1.23;;;;;;;;;;10129726;28;20047;-67
2021/01/18 23:30:23;;;;;;;6.60;1.40;;;;;;;;;;10144794;28;20023;-67
2021/01/18 23:35:20;;;;;;;8.70;2.80;;;;;;;;;;10148277;28;20445;-67
2021/01/18 23:40:18;;;;;;;4.03;2.27;;;;;;;;;;10122195;28;20079;-67
2021/01/18 23:45:15;;;;;;;5.47;2.67;;;;;;;;;;10138655;28;20551;-67
2021/01/18 23:50:15;;;;;;;8.07;3.03;;;;;;;;;;10138500;28;20046;-67
2021/01/18 23:55:12;;;;;;;4.50;2.65;;;;;;;;;;10110248;28;20062;-66
